Mortugaba, Brazil
Current Conditions -  °F | °C
As of 5:00 PM on Monday 24 Nov 2014 (Local Time) from SBQV Reporting Station
Few Clouds Few Clouds  
Wind Chill: 81°   Ceiling: Unl
Heat Index: 83°   Visibility: 6mi
Dew Point: 68°   Wind: 9mph
Humidity: 65%   Direction: 90°E
Pressure: 30"   Gusts: NA
Location:  15°S, 42.31°W
Report Text: SBQV 242000Z 09008KT 9999 FEW020 27/20 Q1016
Loading
Personal Weather Stations






























Interactive Weather Map New forecast layout! Learn more

10-Day Weather Forecast

Advertisements
Track Severe Weather on mobile